CZVL

Edmonton / Villeneuve Airport

Edmonton, Alberta, Canada
METAR CZVL 231400Z AUTO 21013KT 9SM CLR M15/M19 A2974 RMK SLP122
Observed Flight Rules
Feb-23 @ 14:00 UTC (32 minutes ago) Visual Flight Rules
Wind Visibility Clouds
210° at 13 knots 9 miles
  • Clear skies
Temperatures Readings
Current -15°C / 5°F
Dewpoint -19°C / -2°F
Humidity 72%
Altimeter 29.74" Hg
Pressure 1012.2 hPa
Elevation 686
METAR CZVL 231400Z AUTO 21013KT 9SM CLR M15/M19 A2974 RMK SLP122
Observed Flight Rules
Feb-23 @ 14:00 UTC
(32 minutes ago)
VFR
Wind Visibility
210° at 13 knots 9 miles
Clouds
  • Clear skies
Temperature Dewpoint
-15°C / 5°F -19°C / -2°F
Humidity Altimeter Pressure
72% 29.74" Hg 1012.2 hPa